Time;durP1;ratioP1;P1;durP2;ratioP2;P2;SDS_P1;SDS_P2;PMS_P1;PMS_P2;Temp;Humidity;BMP_temperature;BMP_pressure;BME280_temperature;BME280_humidity;BME280_pressure;Samples;Min_cycle;Max_cycle;Signal;HPM_P1;HPM_P2
2023/12/15 00:00:57;;;;;;;32.60;29.10;;;;;;;1.27;100.00;98229.52;106746;1266;23916;-79
2023/12/15 00:03:41;;;;;;;29.90;26.70;;;;;;;1.20;100.00;98234.73;106830;1275;22533;-79
2023/12/15 00:06:09;;;;;;;30.20;27.10;;;;;;;1.11;100.00;98231.06;106791;1270;22668;-78
2023/12/15 00:08:37;;;;;;;29.60;26.60;;;;;;;1.05;100.00;98236.34;106764;1275;24397;-78
2023/12/15 00:11:05;;;;;;;30.20;27.40;;;;;;;1.02;100.00;98243.00;106770;1267;22551;-80
2023/12/15 00:13:33;;;;;;;31.10;28.10;;;;;;;0.99;100.00;98247.17;106691;1268;22644;-79
2023/12/15 00:16:02;;;;;;;33.20;29.50;;;;;;;0.97;100.00;98252.23;106651;1265;23138;-80
2023/12/15 00:18:30;;;;;;;34.20;29.70;;;;;;;0.94;100.00;98254.80;106718;1266;22624;-80
2023/12/15 00:20:58;;;;;;;35.70;32.30;;;;;;;0.92;100.00;98261.17;106441;1266;22656;-80
2023/12/15 00:23:26;;;;;;;36.10;32.40;;;;;;;0.87;100.00;98263.23;106756;1266;25415;-80
2023/12/15 00:25:54;;;;;;;38.30;34.30;;;;;;;0.80;100.00;98266.12;106805;1281;24076;-79
2023/12/15 00:28:22;;;;;;;35.90;32.10;;;;;;;0.72;100.00;98271.98;106883;1266;25910;-79
2023/12/15 00:30:50;;;;;;;36.90;32.90;;;;;;;0.71;100.00;98275.55;106698;1281;23893;-80
2023/12/15 00:33:18;;;;;;;35.10;31.50;;;;;;;0.66;100.00;98278.38;106749;1279;25376;-79
2023/12/15 00:35:47;;;;;;;33.80;30.40;;;;;;;0.64;100.00;98279.89;106951;1267;24767;-81
2023/12/15 00:38:15;;;;;;;36.30;32.60;;;;;;;0.57;100.00;98285.67;106857;1280;22531;-84
2023/12/15 00:40:43;;;;;;;37.50;33.60;;;;;;;0.55;100.00;98292.78;106798;1271;22584;-83
2023/12/15 00:43:11;;;;;;;35.60;30.90;;;;;;;0.52;100.00;98298.73;107482;1275;22539;-83
2023/12/15 00:45:41;;;;;;;34.10;30.60;;;;;;;0.51;100.00;98302.16;107072;1275;22557;-83
2023/12/15 00:48:10;;;;;;;38.20;34.30;;;;;;;0.52;100.00;98310.61;107259;1258;22545;-80
2023/12/15 00:50:38;;;;;;;35.90;32.30;;;;;;;0.49;100.00;98315.16;106777;1282;24380;-80
2023/12/15 00:53:06;;;;;;;40.10;34.80;;;;;;;0.45;100.00;98321.85;106796;1281;22734;-80
2023/12/15 00:55:34;;;;;;;35.20;31.80;;;;;;;0.46;100.00;98322.99;106927;1275;22536;-80
2023/12/15 00:58:28;;;;;;;38.30;34.40;;;;;;;0.48;100.00;98327.59;106865;1274;22548;-80
2023/12/15 01:00:55;;;;;;;36.10;32.50;;;;;;;0.47;100.00;98331.50;106846;1274;22632;-79
2023/12/15 01:03:23;;;;;;;37.30;33.40;;;;;;;0.46;100.00;98337.77;106759;1270;25385;-80
2023/12/15 01:05:51;;;;;;;38.20;34.40;;;;;;;0.48;100.00;98345.45;106735;1275;23868;-79
2023/12/15 01:08:20;;;;;;;36.70;33.10;;;;;;;0.45;100.00;98350.66;106793;1265;25102;-79
2023/12/15 01:10:48;;;;;;;39.80;35.90;;;;;;;0.44;100.00;98349.86;106911;1278;22552;-79
2023/12/15 01:13:16;;;;;;;39.30;35.40;;;;;;;0.42;100.00;98354.08;106840;1281;24232;-78
2023/12/15 01:15:44;;;;;;;37.70;34.00;;;;;;;0.41;100.00;98357.20;108051;1277;22543;-77
2023/12/15 01:18:12;;;;;;;33.90;30.70;;;;;;;0.43;100.00;98362.34;108063;1275;22547;-78
2023/12/15 01:20:41;;;;;;;36.40;32.60;;;;;;;0.44;100.00;98360.51;106844;1268;22559;-78
2023/12/15 01:23:09;;;;;;;36.10;32.40;;;;;;;0.44;100.00;98364.83;106864;1278;23313;-79
2023/12/15 01:25:37;;;;;;;32.50;29.00;;;;;;;0.39;100.00;98367.90;106402;1275;24428;-78
2023/12/15 01:28:05;;;;;;;34.20;30.90;;;;;;;0.40;100.00;98370.73;106739;1273;26335;-79
2023/12/15 01:30:33;;;;;;;35.10;31.60;;;;;;;0.44;100.00;98372.77;106704;1281;25342;-79
2023/12/15 01:33:01;;;;;;;34.90;31.50;;;;;;;0.44;100.00;98377.70;106688;1281;23190;-80
2023/12/15 01:35:29;;;;;;;37.00;32.60;;;;;;;0.42;100.00;98379.56;106656;1258;22544;-79
2023/12/15 01:37:58;;;;;;;33.50;30.00;;;;;;;0.43;100.00;98382.70;106735;1281;22588;-80
2023/12/15 01:40:26;;;;;;;34.90;31.30;;;;;;;0.44;100.00;98383.55;106749;1275;23314;-79
2023/12/15 01:42:59;;;;;;;36.70;32.60;;;;;;;0.44;100.00;98388.05;106779;1259;23925;-79
2023/12/15 01:45:27;;;;;;;37.30;33.40;;;;;;;0.40;100.00;98388.45;106771;1278;22686;-79
2023/12/15 01:47:56;;;;;;;37.90;33.80;;;;;;;0.39;100.00;98395.75;106748;1274;22593;-79
2023/12/15 01:50:24;;;;;;;37.00;32.90;;;;;;;0.42;100.00;98398.52;106753;1281;23213;-79
2023/12/15 01:52:52;;;;;;;37.20;33.20;;;;;;;0.37;100.00;98397.21;106880;1280;22590;-79
2023/12/15 01:55:20;;;;;;;36.30;32.60;;;;;;;0.39;100.00;98394.89;106790;1281;24409;-79
2023/12/15 01:57:48;;;;;;;35.20;31.70;;;;;;;0.36;100.00;98403.38;106707;1273;22554;-79
2023/12/15 02:00:17;;;;;;;34.40;30.80;;;;;;;0.33;100.00;98402.50;106821;1275;23916;-79
2023/12/15 02:02:46;;;;;;;34.30;30.90;;;;;;;0.31;100.00;98405.10;106921;1262;23249;-79
2023/12/15 02:05:14;;;;;;;35.90;32.10;;;;;;;0.29;100.00;98414.30;106871;1266;24383;-79
2023/12/15 02:07:42;;;;;;;31.90;28.90;;;;;;;0.30;100.00;98420.65;106783;1281;25313;-79
2023/12/15 02:10:09;;;;;;;33.50;30.10;;;;;;;0.29;100.00;98426.89;106764;1280;25537;-79
2023/12/15 02:12:37;;;;;;;31.40;28.50;;;;;;;0.30;100.00;98435.08;106674;1277;24213;-79
2023/12/15 02:15:09;;;;;;;31.60;28.40;;;;;;;0.32;100.00;98438.08;106796;1268;22587;-79
2023/12/15 02:17:38;;;;;;;34.30;30.50;;;;;;;0.34;100.00;98436.89;106762;1281;22588;-79
2023/12/15 02:20:07;;;;;;;33.10;29.60;;;;;;;0.32;100.00;98444.30;107235;1275;22756;-79
2023/12/15 02:22:35;;;;;;;32.50;29.00;;;;;;;0.32;100.00;98445.78;107209;1269;22673;-79
2023/12/15 02:25:03;;;;;;;31.20;28.00;;;;;;;0.32;100.00;98446.67;106775;1280;25364;-79
2023/12/15 02:27:32;;;;;;;31.30;28.10;;;;;;;0.34;100.00;98453.80;106453;1268;22576;-80
2023/12/15 02:30:01;;;;;;;31.30;28.10;;;;;;;0.39;100.00;98455.50;106747;1280;22600;-79
2023/12/15 02:32:29;;;;;;;31.10;28.00;;;;;;;0.43;100.00;98458.86;106725;1268;24069;-77
2023/12/15 02:34:57;;;;;;;28.90;26.10;;;;;;;0.42;100.00;98462.44;106726;1268;23927;-78
2023/12/15 02:37:27;;;;;;;28.60;25.70;;;;;;;0.39;100.00;98467.66;106747;1270;22671;-77
2023/12/15 02:39:55;;;;;;;25.80;23.30;;;;;;;0.32;100.00;98473.32;106464;1265;22571;-78
2023/12/15 02:42:23;;;;;;;25.10;22.60;;;;;;;0.25;100.00;98478.72;106394;1270;22744;-78
2023/12/15 02:44:51;;;;;;;24.60;22.30;;;;;;;0.25;100.00;98484.80;106330;1271;22732;-78
2023/12/15 02:47:19;;;;;;;24.40;21.90;;;;;;;0.24;100.00;98485.27;106750;1275;24565;-77
2023/12/15 02:49:47;;;;;;;23.00;20.80;;;;;;;0.19;100.00;98489.08;106415;1266;25365;-78
2023/12/15 02:52:15;;;;;;;22.10;20.00;;;;;;;0.16;100.00;98490.95;106691;1281;24346;-78
2023/12/15 02:54:43;;;;;;;22.80;20.60;;;;;;;0.16;100.00;98494.98;106729;1267;22537;-78
2023/12/15 02:57:11;;;;;;;22.20;20.20;;;;;;;0.16;100.00;98498.04;106828;1275;22652;-78
2023/12/15 02:59:39;;;;;;;24.50;22.30;;;;;;;0.15;100.00;98506.00;106735;1268;24464;-78
2023/12/15 03:02:07;;;;;;;23.30;21.20;;;;;;;0.11;100.00;98513.92;106734;1281;23928;-78
2023/12/15 03:04:35;;;;;;;22.00;20.00;;;;;;;0.10;100.00;98517.13;106768;1281;25281;-78
2023/12/15 03:07:03;;;;;;;20.50;18.50;;;;;;;0.08;100.00;98522.90;106763;1281;22785;-77
2023/12/15 03:09:31;;;;;;;22.10;20.00;;;;;;;0.08;100.00;98528.02;106449;1269;24231;-77
2023/12/15 03:11:59;;;;;;;19.80;18.10;;;;;;;0.04;100.00;98526.07;106421;1266;23920;-78
2023/12/15 03:14:27;;;;;;;19.30;17.50;;;;;;;-0.01;100.00;98527.56;106899;1270;25235;-77
2023/12/15 03:16:55;;;;;;;19.70;17.90;;;;;;;-0.02;100.00;98536.09;106827;1266;25553;-77
2023/12/15 03:19:23;;;;;;;18.80;16.90;;;;;;;-0.01;100.00;98543.17;106444;1277;24347;-77
2023/12/15 03:21:51;;;;;;;19.30;17.40;;;;;;;0.01;100.00;98551.45;106874;1275;23884;-77
2023/12/15 03:24:19;;;;;;;19.00;17.20;;;;;;;0.04;100.00;98556.35;106535;1278;22526;-77
2023/12/15 03:26:47;;;;;;;18.60;16.90;;;;;;;0.02;100.00;98561.33;106565;1266;22533;-76
2023/12/15 03:29:15;;;;;;;17.90;16.30;;;;;;;0.01;100.00;98566.33;106625;1281;25260;-78
2023/12/15 03:31:45;;;;;;;16.80;15.40;;;;;;;-0.02;100.00;98572.98;106480;1265;24238;-76
2023/12/15 03:34:12;;;;;;;15.80;14.40;;;;;;;-0.02;100.00;98573.95;106387;1270;25428;-77
2023/12/15 03:36:40;;;;;;;17.00;15.50;;;;;;;-0.04;100.00;98579.43;106347;1268;22633;-76
2023/12/15 03:39:09;;;;;;;14.20;12.90;;;;;;;-0.06;100.00;98580.09;106423;1268;25464;-76
2023/12/15 03:41:37;;;;;;;16.20;14.80;;;;;;;-0.11;100.00;98584.89;106407;1259;24254;-77
2023/12/15 03:44:05;;;;;;;14.00;12.70;;;;;;;-0.17;100.00;98586.44;106398;1278;24273;-77
2023/12/15 03:46:33;;;;;;;13.00;11.80;;;;;;;-0.19;100.00;98584.21;106844;1272;24372;-77
2023/12/15 03:49:01;;;;;;;13.60;12.40;;;;;;;-0.21;100.00;98587.84;106588;1278;25280;-77
2023/12/15 03:51:29;;;;;;;13.90;12.60;;;;;;;-0.20;100.00;98597.66;106565;1270;25522;-79
2023/12/15 03:53:57;;;;;;;14.50;13.20;;;;;;;-0.22;100.00;98599.61;106659;1280;22770;-78
2023/12/15 03:56:26;;;;;;;14.70;13.30;;;;;;;-0.26;100.00;98606.52;106376;1270;22537;-76
2023/12/15 03:58:55;;;;;;;13.50;12.30;;;;;;;-0.29;100.00;98615.02;106415;1281;24400;-77
2023/12/15 04:01:23;;;;;;;13.00;11.80;;;;;;;-0.28;100.00;98620.46;106355;1274;25542;-77
2023/12/15 04:03:51;;;;;;;13.40;12.20;;;;;;;-0.30;100.00;98622.23;106772;1266;23900;-77
2023/12/15 04:06:19;;;;;;;14.40;13.10;;;;;;;-0.36;100.00;98631.96;106493;1275;25360;-77
2023/12/15 04:08:47;;;;;;;14.60;13.20;;;;;;;-0.42;100.00;98633.81;106488;1266;22567;-77
2023/12/15 04:11:16;;;;;;;13.80;12.50;;;;;;;-0.49;100.00;98638.88;106353;1265;24425;-77
2023/12/15 04:13:45;;;;;;;14.30;12.90;;;;;;;-0.52;100.00;98646.23;106804;1270;22660;-76
2023/12/15 04:16:13;;;;;;;15.50;14.10;;;;;;;-0.54;100.00;98647.38;106729;1281;24080;-77
2023/12/15 04:18:42;;;;;;;16.10;14.50;;;;;;;-0.57;100.00;98660.49;106423;1281;22648;-78
2023/12/15 04:21:10;;;;;;;16.90;15.40;;;;;;;-0.60;100.00;98665.39;107186;1281;22658;-78
2023/12/15 04:23:38;;;;;;;16.80;15.30;;;;;;;-0.59;100.00;98671.70;107189;1281;24188;-77
2023/12/15 04:26:07;;;;;;;16.60;15.10;;;;;;;-0.58;100.00;98673.16;106806;1269;24501;-77
2023/12/15 04:28:35;;;;;;;17.60;15.90;;;;;;;-0.57;100.00;98676.62;106769;1281;22687;-76
2023/12/15 04:31:03;;;;;;;17.40;15.80;;;;;;;-0.60;100.00;98676.71;106564;1281;23939;-76
2023/12/15 04:33:31;;;;;;;15.20;13.80;;;;;;;-0.68;100.00;98680.55;106647;1281;23017;-77
2023/12/15 04:35:59;;;;;;;14.60;13.20;;;;;;;-0.71;100.00;98688.50;106830;1281;22535;-77
2023/12/15 04:38:27;;;;;;;13.30;12.10;;;;;;;-0.74;100.00;98694.08;106920;1265;24129;-77
2023/12/15 04:40:55;;;;;;;15.40;14.00;;;;;;;-0.77;100.00;98696.85;106954;1281;22530;-77
2023/12/15 04:43:23;;;;;;;15.30;13.90;;;;;;;-0.81;100.00;98702.52;106982;1274;22549;-77
2023/12/15 04:45:51;;;;;;;14.20;13.00;;;;;;;-0.84;100.00;98709.82;106492;1281;22532;-77
2023/12/15 04:48:19;;;;;;;14.90;13.50;;;;;;;-0.89;100.00;98715.35;106442;1269;23697;-77
2023/12/15 04:50:49;;;;;;;16.20;14.80;;;;;;;-0.92;100.00;98714.99;106899;1280;25113;-78
2023/12/15 04:53:17;;;;;;;16.00;14.40;;;;;;;-0.94;100.00;98719.42;106722;1275;24099;-78
2023/12/15 04:55:45;;;;;;;17.20;15.70;;;;;;;-0.95;100.00;98719.55;106714;1278;24263;-78
2023/12/15 04:58:13;;;;;;;15.20;13.80;;;;;;;-1.00;100.00;98718.89;106912;1270;24224;-77
2023/12/15 05:00:41;;;;;;;15.30;14.00;;;;;;;-1.03;100.00;98724.59;106875;1269;22541;-77
2023/12/15 05:03:09;;;;;;;16.90;15.40;;;;;;;-1.07;100.00;98730.90;106489;1278;22566;-78
2023/12/15 05:05:37;;;;;;;15.80;14.30;;;;;;;-1.08;100.00;98744.61;106391;1266;22926;-78
2023/12/15 05:08:05;;;;;;;16.40;14.90;;;;;;;-1.09;100.00;98748.75;106676;1278;26689;-78
2023/12/15 05:10:33;;;;;;;18.80;17.20;;;;;;;-1.08;100.00;98749.49;106705;1278;22843;-78
2023/12/15 05:13:01;;;;;;;17.30;15.30;;;;;;;-1.09;100.00;98758.81;106701;1281;22682;-78
2023/12/15 05:15:29;;;;;;;15.60;14.00;;;;;;;-1.08;100.00;98761.88;106849;1281;25591;-77
2023/12/15 05:17:57;;;;;;;16.30;14.70;;;;;;;-1.06;100.00;98760.60;106507;1275;23894;-77
2023/12/15 05:20:25;;;;;;;17.00;15.20;;;;;;;-1.04;100.00;98768.46;106465;1266;25259;-78
2023/12/15 05:22:53;;;;;;;18.80;17.20;;;;;;;-1.05;100.00;98779.77;106383;1258;22603;-76
2023/12/15 05:25:21;;;;;;;19.10;17.40;;;;;;;-1.04;100.00;98783.02;106376;1271;25574;-77
2023/12/15 05:27:49;;;;;;;17.50;15.90;;;;;;;-1.05;100.00;98788.84;106445;1281;22767;-79
2023/12/15 05:30:17;;;;;;;17.10;15.70;;;;;;;-1.05;100.00;98795.36;106533;1275;22565;-77
2023/12/15 05:32:45;;;;;;;18.50;16.80;;;;;;;-1.03;100.00;98801.92;106339;1278;22533;-78
2023/12/15 05:35:14;;;;;;;20.30;18.50;;;;;;;-1.00;100.00;98803.14;106354;1269;24258;-78
2023/12/15 05:37:42;;;;;;;19.80;17.90;;;;;;;-0.99;100.00;98804.77;106406;1272;24210;-78
2023/12/15 05:40:12;;;;;;;21.40;19.30;;;;;;;-1.00;100.00;98805.05;106776;1269;22534;-79
2023/12/15 05:42:40;;;;;;;18.70;17.00;;;;;;;-0.99;100.00;98808.55;106740;1267;25489;-79
2023/12/15 05:45:09;;;;;;;20.60;18.70;;;;;;;-0.96;100.00;98818.32;106758;1281;25551;-78
2023/12/15 05:47:37;;;;;;;20.10;18.30;;;;;;;-0.92;100.00;98819.89;106514;1266;24278;-78
2023/12/15 05:50:07;;;;;;;22.80;20.60;;;;;;;-0.87;100.00;98827.04;106820;1281;24369;-77
2023/12/15 05:52:35;;;;;;;23.10;20.90;;;;;;;-0.89;100.00;98820.08;106516;1268;24277;-78
2023/12/15 05:55:03;;;;;;;23.40;21.30;;;;;;;-0.93;100.00;98826.90;106803;1269;24692;-78
2023/12/15 05:57:31;;;;;;;24.50;22.10;;;;;;;-0.93;100.00;98833.79;106574;1275;22548;-77
2023/12/15 05:59:59;;;;;;;24.50;22.30;;;;;;;-0.88;100.00;98841.00;106398;1281;22746;-77
2023/12/15 06:02:28;;;;;;;23.70;21.30;;;;;;;-0.84;100.00;98846.38;106846;1275;22533;-77
2023/12/15 06:04:56;;;;;;;23.90;21.80;;;;;;;-0.84;100.00;98854.65;106438;1281;23136;-78
2023/12/15 06:07:24;;;;;;;24.70;22.70;;;;;;;-0.84;100.00;98860.92;106523;1281;22533;-78
2023/12/15 06:09:52;;;;;;;26.30;23.90;;;;;;;-0.88;100.00;98862.05;106468;1281;22537;-77
2023/12/15 06:12:20;;;;;;;25.60;23.00;;;;;;;-0.92;100.00;98871.20;106433;1259;24212;-78
2023/12/15 06:14:48;;;;;;;26.50;23.90;;;;;;;-0.93;100.00;98872.34;106371;1281;25383;-78
2023/12/15 06:17:16;;;;;;;26.60;24.00;;;;;;;-0.89;100.00;98875.77;106415;1270;22827;-78
2023/12/15 06:19:44;;;;;;;29.30;26.30;;;;;;;-0.85;100.00;98876.66;106391;1273;22620;-78
2023/12/15 06:22:12;;;;;;;31.10;28.00;;;;;;;-0.88;100.00;98883.58;106350;1270;24302;-77
2023/12/15 06:24:40;;;;;;;30.40;27.50;;;;;;;-0.90;100.00;98886.46;106346;1266;23249;-77
2023/12/15 06:27:09;;;;;;;30.40;27.20;;;;;;;-0.94;100.00;98885.52;106389;1278;22536;-78
2023/12/15 06:29:37;;;;;;;31.30;28.20;;;;;;;-0.93;100.00;98890.20;106398;1281;22552;-78
2023/12/15 06:32:05;;;;;;;29.40;26.70;;;;;;;-0.95;100.00;98894.73;106766;1270;23210;-77
2023/12/15 06:34:33;;;;;;;30.40;27.60;;;;;;;-0.93;100.00;98895.74;106426;1266;22667;-78
2023/12/15 06:37:01;;;;;;;31.80;28.80;;;;;;;-0.90;100.00;98906.29;106382;1281;22533;-78
2023/12/15 06:39:30;;;;;;;32.90;29.80;;;;;;;-0.89;100.00;98906.85;106412;1272;22539;-78
2023/12/15 06:41:58;;;;;;;30.00;27.00;;;;;;;-0.92;100.00;98913.37;106701;1278;24693;-78
2023/12/15 06:44:26;;;;;;;29.60;26.80;;;;;;;-0.93;100.00;98913.33;106713;1276;24869;-78
2023/12/15 06:46:54;;;;;;;29.00;26.40;;;;;;;-0.93;100.00;98918.50;106783;1270;26335;-78
2023/12/15 06:49:30;;;;;;;34.50;31.50;;;;;;;-0.94;100.00;98918.74;106476;1268;22992;-78
2023/12/15 06:52:00;;;;;;;31.00;28.00;;;;;;;-0.90;100.00;98924.98;106867;1280;22661;-77
2023/12/15 06:54:27;;;;;;;28.20;25.30;;;;;;;-0.87;100.00;98929.35;106487;1266;25535;-78
2023/12/15 06:56:55;;;;;;;33.00;29.80;;;;;;;-0.86;100.00;98931.86;106557;1281;22565;-79
2023/12/15 06:59:23;;;;;;;30.20;27.00;;;;;;;-0.88;100.00;98936.13;106748;1267;22547;-77
2023/12/15 07:01:51;;;;;;;36.20;33.00;;;;;;;-0.90;100.00;98944.40;106498;1278;25259;-78
2023/12/15 07:04:19;;;;;;;55.50;44.90;;;;;;;-0.87;100.00;98946.23;106482;1281;22544;-77
2023/12/15 07:06:48;;;;;;;90.00;58.70;;;;;;;-0.81;100.00;98948.98;106823;1281;24334;-77
2023/12/15 07:09:16;;;;;;;52.40;42.20;;;;;;;-0.77;100.00;98952.56;106830;1266;22692;-78
2023/12/15 07:11:46;;;;;;;53.30;48.10;;;;;;;-0.72;100.00;98948.19;106873;1270;22550;-78
2023/12/15 07:14:14;;;;;;;47.30;43.00;;;;;;;-0.70;100.00;98958.46;106806;1266;23134;-80
2023/12/15 07:16:42;;;;;;;40.60;36.90;;;;;;;-0.70;100.00;98974.45;106925;1281;23927;-78
2023/12/15 07:19:10;;;;;;;33.10;29.90;;;;;;;-0.72;100.00;98990.65;106869;1278;22585;-79
2023/12/15 07:21:38;;;;;;;30.00;27.20;;;;;;;-0.77;100.00;98994.30;106694;1266;25438;-78
2023/12/15 07:24:07;;;;;;;33.80;30.50;;;;;;;-0.78;100.00;98988.16;107121;1268;22558;-77
2023/12/15 07:26:34;;;;;;;38.60;34.80;;;;;;;-0.75;100.00;98982.98;106862;1262;24192;-78
2023/12/15 07:29:02;;;;;;;42.40;38.30;;;;;;;-0.70;100.00;98992.08;107066;1271;22616;-78
2023/12/15 07:31:31;;;;;;;43.40;39.20;;;;;;;-0.67;100.00;98991.98;106880;1281;23382;-79
2023/12/15 07:33:58;;;;;;;48.50;43.60;;;;;;;-0.63;100.00;98989.34;106885;1272;25456;-78
2023/12/15 07:36:27;;;;;;;52.70;47.00;;;;;;;-0.62;100.00;98995.77;106473;1277;22566;-78
2023/12/15 07:38:55;;;;;;;53.50;44.40;;;;;;;-0.59;100.00;99002.14;106725;1281;22550;-78
2023/12/15 07:41:23;;;;;;;46.40;41.70;;;;;;;-0.60;100.00;99016.84;106722;1281;24399;-77
2023/12/15 07:43:51;;;;;;;48.20;43.30;;;;;;;-0.66;100.00;99012.98;106375;1276;22600;-77
2023/12/15 07:46:21;;;;;;;45.60;40.90;;;;;;;-0.69;100.00;99008.13;106411;1281;25284;-77
2023/12/15 07:48:50;;;;;;;53.80;47.80;;;;;;;-0.71;100.00;99016.04;106461;1275;22591;-77
2023/12/15 07:51:20;;;;;;;51.40;45.40;;;;;;;-0.75;100.00;99012.63;106230;1281;22682;-77
2023/12/15 07:53:48;;;;;;;50.40;42.90;;;;;;;-0.74;100.00;99020.21;106407;1270;22539;-77
2023/12/15 07:56:24;;;;;;;48.70;43.70;;;;;;;-0.72;100.00;99019.81;106366;1278;24309;-76
2023/12/15 07:58:54;;;;;;;44.60;40.50;;;;;;;-0.68;100.00;99022.52;106363;1270;22652;-77
2023/12/15 08:01:24;;;;;;;43.00;39.00;;;;;;;-0.71;100.00;99026.17;106435;1281;24184;-78
2023/12/15 08:03:52;;;;;;;38.20;34.70;;;;;;;-0.73;100.00;99030.59;106408;1270;22655;-78
2023/12/15 08:06:20;;;;;;;41.20;37.40;;;;;;;-0.72;100.00;99032.30;106776;1272;23325;-77
2023/12/15 08:08:49;;;;;;;40.90;37.10;;;;;;;-0.76;100.00;99038.65;106801;1277;25580;-77
2023/12/15 08:11:17;;;;;;;42.10;37.90;;;;;;;-0.78;100.00;99050.28;106395;1278;22966;-76
2023/12/15 08:13:46;;;;;;;41.30;37.50;;;;;;;-0.79;100.00;99048.85;106465;1281;22553;-77
2023/12/15 08:16:14;;;;;;;44.30;40.10;;;;;;;-0.73;100.00;99053.36;106893;1271;25584;-77
2023/12/15 08:18:43;;;;;;;44.60;40.60;;;;;;;-0.71;100.00;99053.04;106516;1266;24257;-77
2023/12/15 08:21:12;;;;;;;42.40;38.50;;;;;;;-0.70;100.00;99060.98;106657;1277;25889;-78
2023/12/15 08:23:40;;;;;;;39.80;36.10;;;;;;;-0.69;100.00;99069.21;106552;1277;22555;-78
2023/12/15 08:26:08;;;;;;;44.60;40.30;;;;;;;-0.66;100.00;99073.70;106769;1275;22579;-78
2023/12/15 08:28:36;;;;;;;39.80;36.00;;;;;;;-0.66;100.00;99068.62;106877;1265;22654;-78
2023/12/15 08:31:04;;;;;;;41.40;37.60;;;;;;;-0.60;100.00;99075.29;106885;1281;24210;-77
2023/12/15 08:33:32;;;;;;;46.50;42.00;;;;;;;-0.59;100.00;99077.81;106480;1278;25326;-77
2023/12/15 08:36:01;;;;;;;45.50;41.20;;;;;;;-0.58;100.00;99086.20;106396;1270;22674;-77
2023/12/15 08:38:29;;;;;;;45.50;41.40;;;;;;;-0.61;100.00;99082.28;106386;1266;22537;-79
2023/12/15 08:40:57;;;;;;;40.70;37.00;;;;;;;-0.57;100.00;99088.52;106559;1269;24108;-77
2023/12/15 08:43:25;;;;;;;40.90;37.20;;;;;;;-0.56;100.00;99092.03;106890;1278;22583;-77
2023/12/15 08:45:53;;;;;;;44.90;40.50;;;;;;;-0.58;100.00;99093.66;106611;1275;24696;-78
2023/12/15 08:48:24;;;;;;;45.30;41.30;;;;;;;-0.52;100.00;99094.91;106913;1259;22539;-79
2023/12/15 08:50:53;;;;;;;45.30;41.00;;;;;;;-0.52;100.00;99088.02;106496;1281;22689;-78
2023/12/15 08:53:21;;;;;;;53.60;48.70;;;;;;;-0.47;100.00;99095.09;106817;1281;22547;-78
2023/12/15 08:55:52;;;;;;;45.20;40.90;;;;;;;-0.39;100.00;99097.19;106864;1266;22530;-77
2023/12/15 08:58:22;;;;;;;47.90;43.40;;;;;;;-0.29;100.00;99096.90;106897;1275;23411;-77
2023/12/15 09:00:50;;;;;;;50.10;45.30;;;;;;;-0.17;100.00;99099.09;106683;1281;23495;-77
2023/12/15 09:03:18;;;;;;;49.20;44.30;;;;;;;-0.09;100.00;99101.98;106639;1281;22542;-77
2023/12/15 09:05:46;;;;;;;48.50;43.80;;;;;;;0.04;100.00;99101.63;106516;1278;22545;-77
2023/12/15 09:08:34;;;;;;;49.70;44.90;;;;;;;0.15;100.00;99103.20;106799;1281;22560;-76
2023/12/15 09:11:03;;;;;;;55.10;49.80;;;;;;;0.24;100.00;99107.41;106451;1281;22547;-77
2023/12/15 09:13:33;;;;;;;48.80;43.80;;;;;;;0.26;100.00;99110.47;106488;1281;22762;-77
2023/12/15 09:16:01;;;;;;;45.40;41.10;;;;;;;0.33;100.00;99113.34;106587;1272;25369;-79
2023/12/15 09:18:29;;;;;;;46.20;41.80;;;;;;;0.46;100.00;99115.79;106996;1278;25434;-79
2023/12/15 09:20:57;;;;;;;46.20;41.80;;;;;;;0.59;100.00;99114.66;107019;1278;22533;-78
2023/12/15 09:23:25;;;;;;;42.60;38.60;;;;;;;0.64;100.00;99112.77;107025;1281;22658;-80
2023/12/15 09:25:54;;;;;;;45.20;40.90;;;;;;;0.64;100.00;99118.04;106953;1271;22548;-77
2023/12/15 09:28:22;;;;;;;46.40;42.10;;;;;;;0.66;100.00;99120.55;106959;1278;22717;-78
2023/12/15 09:30:50;;;;;;;45.60;41.30;;;;;;;0.70;100.00;99133.17;106926;1276;22559;-78
2023/12/15 09:33:18;;;;;;;47.90;43.40;;;;;;;0.72;100.00;99140.20;106505;1281;25256;-78
2023/12/15 09:35:47;;;;;;;45.00;40.60;;;;;;;0.73;100.00;99145.84;106350;1281;24285;-77
2023/12/15 09:38:16;;;;;;;47.80;43.30;;;;;;;0.78;100.00;99145.95;107130;1273;22628;-78
2023/12/15 09:40:45;;;;;;;57.00;51.70;;;;;;;0.80;100.00;99147.96;106855;1280;22554;-79
2023/12/15 09:43:14;;;;;;;47.70;43.50;;;;;;;0.79;100.00;99155.14;106847;1275;22537;-78
2023/12/15 09:45:43;;;;;;;44.10;40.30;;;;;;;0.75;100.00;99158.48;106803;1278;23888;-79
2023/12/15 09:48:14;;;;;;;44.30;40.10;;;;;;;0.75;100.00;99160.17;106910;1278;25501;-80
2023/12/15 09:50:50;;;;;;;42.10;38.40;;;;;;;0.75;100.00;99155.64;106899;1274;22552;-79
2023/12/15 09:53:19;;;;;;;50.30;45.30;;;;;;;0.78;100.00;99154.70;106796;1273;159713;-79
2023/12/15 09:55:50;;;;;;;64.80;54.40;;;;;;;0.76;100.00;99154.82;106872;1278;22541;-78
2023/12/15 09:58:19;;;;;;;83.00;59.30;;;;;;;0.72;100.00;99157.19;106891;1278;26718;-78
2023/12/15 10:00:47;;;;;;;54.00;48.70;;;;;;;0.69;100.00;99155.51;106879;1278;24517;-78
2023/12/15 10:03:16;;;;;;;50.30;45.70;;;;;;;0.65;100.00;99154.70;106414;1262;25279;-78
2023/12/15 10:05:44;;;;;;;51.40;46.00;;;;;;;0.59;100.00;99154.89;106769;1281;22547;-78
2023/12/15 10:08:12;;;;;;;50.60;45.70;;;;;;;0.63;100.00;99151.77;106507;1281;26043;-78
2023/12/15 10:10:41;;;;;;;47.60;43.10;;;;;;;0.70;100.00;99153.30;106814;1281;22569;-78
2023/12/15 10:13:09;;;;;;;55.90;50.40;;;;;;;0.71;100.00;99150.05;106738;1276;24244;-78
2023/12/15 10:15:37;;;;;;;61.80;55.60;;;;;;;0.71;100.00;99155.55;106431;1266;22569;-78
2023/12/15 10:18:05;;;;;;;54.70;49.60;;;;;;;0.73;100.00;99156.52;106453;1281;24316;-78
2023/12/15 10:20:34;;;;;;;47.80;43.30;;;;;;;0.75;100.00;99161.39;106791;1280;22545;-79
2023/12/15 10:23:04;;;;;;;50.60;45.80;;;;;;;0.74;100.00;99163.64;107031;1281;22565;-79
2023/12/15 10:25:33;;;;;;;60.40;54.30;;;;;;;0.71;100.00;99166.32;107403;1275;22631;-79
2023/12/15 10:28:05;;;;;;;51.80;47.10;;;;;;;0.69;100.00;99163.54;107286;1281;22546;-79
2023/12/15 10:30:33;;;;;;;55.40;50.30;;;;;;;0.66;100.00;99169.30;107654;1268;23789;-78
2023/12/15 10:33:01;;;;;;;53.40;47.90;;;;;;;0.64;100.00;99176.39;107428;1281;23303;-78
2023/12/15 10:35:31;;;;;;;48.10;43.70;;;;;;;0.56;100.00;99158.53;106987;1274;24256;-78
2023/12/15 10:37:59;;;;;;;47.90;43.20;;;;;;;0.64;100.00;99178.89;106717;1278;25357;-78
2023/12/15 10:40:28;;;;;;;51.70;46.80;;;;;;;0.70;100.00;99181.99;106692;1281;23898;-79
2023/12/15 10:42:57;;;;;;;53.10;48.30;;;;;;;0.75;100.00;99184.20;106818;1271;24375;-78
2023/12/15 10:45:26;;;;;;;58.40;53.10;;;;;;;0.76;100.00;99185.31;106508;1281;23905;-79
2023/12/15 10:47:58;;;;;;;54.40;48.60;;;;;;;0.76;100.00;99183.55;107036;1271;24337;-79
2023/12/15 10:50:29;;;;;;;44.80;40.70;;;;;;;0.75;100.00;99183.27;107126;1279;22555;-77
2023/12/15 10:52:57;;;;;;;43.20;38.80;;;;;;;0.71;100.00;99187.88;106804;1281;25468;-79
2023/12/15 10:55:28;;;;;;;43.60;39.40;;;;;;;0.69;100.00;99192.48;106953;1281;22626;-78
2023/12/15 10:58:01;;;;;;;45.60;41.30;;;;;;;0.68;100.00;99195.88;106940;1281;22549;-78
2023/12/15 11:00:31;;;;;;;;;;;;;;;0.68;100.00;99195.50;106984;1281;22598;-79
2023/12/15 11:03:01;;;;;;;41.40;37.60;;;;;;;0.71;100.00;99199.02;106990;1278;22553;-76
2023/12/15 11:05:32;;;;;;;40.90;37.10;;;;;;;0.68;100.00;99206.60;106661;1281;22553;-75
2023/12/15 11:08:06;;;;;;;42.90;38.60;;;;;;;0.66;100.00;99204.96;106592;1275;22634;-78
2023/12/15 11:10:36;;;;;;;45.10;40.70;;;;;;;0.67;100.00;99203.88;106907;1281;24396;-77